createdAt,value
2022-08-19T00:00:32.856Z,69.11
2022-08-19T00:01:32.873Z,69.31
2022-08-19T00:02:32.869Z,69.21
2022-08-19T00:03:33.581Z,69.31
2022-08-19T00:04:32.941Z,69.40
2022-08-19T00:05:32.790Z,69.50
2022-08-19T00:06:32.798Z,69.40
2022-08-19T00:07:32.780Z,69.37
2022-08-19T00:08:32.787Z,69.46
2022-08-19T00:09:32.740Z,69.37
2022-08-19T00:10:32.744Z,69.37
2022-08-19T00:11:32.727Z,69.40
2022-08-19T00:12:32.743Z,69.27
2022-08-19T00:13:32.746Z,69.31
2022-08-19T00:14:33.594Z,69.31
2022-08-19T00:15:32.675Z,69.21
2022-08-19T00:16:32.667Z,69.27
2022-08-19T00:17:32.658Z,69.17
2022-08-19T00:18:32.668Z,69.17
2022-08-19T00:19:32.660Z,69.07
2022-08-19T00:20:32.662Z,69.17
2022-08-19T00:21:32.620Z,69.27
2022-08-19T00:22:32.601Z,69.17
2022-08-19T00:23:32.602Z,69.07
2022-08-19T00:24:32.605Z,69.46
2022-08-19T00:25:32.562Z,69.46
2022-08-19T00:26:32.575Z,69.46
2022-08-19T00:27:32.536Z,69.37
2022-08-19T00:28:32.538Z,69.27
2022-08-19T00:29:32.524Z,69.27
2022-08-19T00:30:32.500Z,69.27
2022-08-19T00:31:33.100Z,69.27
2022-08-19T00:32:32.486Z,69.27
2022-08-19T00:33:32.469Z,69.66
2022-08-19T00:34:32.460Z,69.66
2022-08-19T00:35:32.495Z,69.17
2022-08-19T00:36:33.108Z,69.17
2022-08-19T00:37:32.420Z,69.34
2022-08-19T00:38:37.133Z,69.24
2022-08-19T00:39:32.435Z,69.34
2022-08-19T00:40:32.445Z,69.37
2022-08-19T00:41:32.426Z,69.37
2022-08-19T00:42:33.137Z,69.37
2022-08-19T00:43:32.360Z,69.17
2022-08-19T00:44:32.362Z,69.37
2022-08-19T00:45:32.342Z,69.07
2022-08-19T00:46:32.356Z,68.98
2022-08-19T00:47:32.309Z,69.76
2022-08-19T00:48:32.294Z,69.95
2022-08-19T00:49:32.297Z,70.02
2022-08-19T00:50:32.287Z,69.92
2022-08-19T00:51:32.284Z,69.82
2022-08-19T00:52:32.273Z,69.66
2022-08-19T00:53:33.122Z,69.73
2022-08-19T00:54:32.224Z,69.76
2022-08-19T00:55:32.210Z,70.05
2022-08-19T00:56:32.205Z,70.12
2022-08-19T00:57:32.212Z,70.12
2022-08-19T00:58:32.239Z,70.31
2022-08-19T00:59:53.501Z,70.15
2022-08-19T01:00:32.149Z,70.21
2022-08-19T01:01:32.165Z,70.41
2022-08-19T01:02:32.155Z,69.92
2022-08-19T01:03:40.278Z,69.92
2022-08-19T01:04:32.113Z,69.73
2022-08-19T01:05:32.101Z,70.02
2022-08-19T01:06:32.082Z,69.92
2022-08-19T01:07:37.962Z,69.73
2022-08-19T01:08:32.095Z,69.92
2022-08-19T01:09:32.635Z,69.92
2022-08-19T01:10:36.209Z,69.92
2022-08-19T01:11:32.034Z,70.02
2022-08-19T01:12:32.029Z,70.12
2022-08-19T01:13:49.326Z,69.95
2022-08-19T01:14:32.015Z,70.41
2022-08-19T01:15:31.987Z,69.92
2022-08-19T01:16:31.965Z,70.02
2022-08-19T01:17:31.952Z,69.82
2022-08-19T01:18:31.968Z,69.92
2022-08-19T01:19:31.981Z,69.82
2022-08-19T01:20:31.973Z,69.53
2022-08-19T01:21:31.898Z,69.63
2022-08-19T01:22:33.828Z,69.82
2022-08-19T01:23:31.900Z,69.82
2022-08-19T01:24:31.895Z,69.63
2022-08-19T01:25:31.849Z,69.73
2022-08-19T01:26:31.867Z,69.92
2022-08-19T01:27:37.451Z,69.73
2022-08-19T01:28:33.993Z,69.82
2022-08-19T01:29:31.823Z,69.73
2022-08-19T01:30:31.835Z,69.63
2022-08-19T01:31:33.259Z,69.82
2022-08-19T01:32:33.474Z,69.92
2022-08-19T01:33:31.760Z,69.82
2022-08-19T01:34:32.660Z,69.63
2022-08-19T01:35:31.757Z,69.53
2022-08-19T01:36:31.720Z,69.82
2022-08-19T01:37:31.853Z,69.34
2022-08-19T01:38:31.709Z,69.92
2022-08-19T01:39:31.718Z,69.43
2022-08-19T01:40:31.714Z,69.34
2022-08-19T01:41:31.719Z,69.14
2022-08-19T01:42:32.637Z,69.24
2022-08-19T01:43:31.641Z,69.34
2022-08-19T01:44:31.627Z,69.34
2022-08-19T01:45:31.651Z,69.43
2022-08-19T01:46:31.635Z,69.24
2022-08-19T01:47:31.684Z,69.14
2022-08-19T01:48:31.581Z,69.24
2022-08-19T01:49:31.577Z,69.04
2022-08-19T01:50:31.575Z,69.24
2022-08-19T01:51:31.578Z,69.14
2022-08-19T01:52:31.527Z,69.43
2022-08-19T01:53:33.733Z,69.24
2022-08-19T01:54:31.515Z,69.34
2022-08-19T01:55:31.496Z,69.14
2022-08-19T01:56:31.507Z,69.14
2022-08-19T01:57:31.500Z,69.34
2022-08-19T01:58:31.521Z,69.34
2022-08-19T01:59:31.451Z,69.34
2022-08-19T02:00:31.448Z,69.24
2022-08-19T02:01:31.509Z,69.43
2022-08-19T02:02:31.448Z,69.34
2022-08-19T02:03:31.420Z,69.43
2022-08-19T02:04:31.475Z,69.43
2022-08-19T02:05:31.380Z,69.43
2022-08-19T02:06:31.368Z,69.34
2022-08-19T02:07:31.375Z,69.34
2022-08-19T02:08:31.359Z,69.24
2022-08-19T02:09:32.207Z,69.43
2022-08-19T02:10:31.325Z,69.34
2022-08-19T02:11:31.307Z,69.34
2022-08-19T02:12:31.308Z,69.43
2022-08-19T02:13:31.321Z,69.43
2022-08-19T02:14:31.295Z,69.34
2022-08-19T02:15:32.162Z,69.63
2022-08-19T02:16:31.260Z,69.43
2022-08-19T02:17:31.248Z,69.43
2022-08-19T02:18:31.252Z,69.43
2022-08-19T02:19:31.261Z,69.43
2022-08-19T02:20:31.257Z,69.34
2022-08-19T02:21:31.183Z,69.24
2022-08-19T02:22:31.188Z,69.63
2022-08-19T02:23:31.176Z,69.14
2022-08-19T02:24:31.213Z,69.63
2022-08-19T02:25:31.190Z,69.53
2022-08-19T02:26:31.210Z,69.43
2022-08-19T02:27:31.132Z,69.24
2022-08-19T02:28:31.109Z,69.43
2022-08-19T02:29:31.099Z,69.14
2022-08-19T02:30:31.121Z,69.14
2022-08-19T02:31:31.144Z,69.43
2022-08-19T02:32:31.058Z,69.24
2022-08-19T02:33:31.040Z,69.24
2022-08-19T02:34:31.053Z,69.43
2022-08-19T02:35:31.032Z,69.34
2022-08-19T02:36:31.009Z,69.43
2022-08-19T02:37:31.010Z,69.14
2022-08-19T02:38:30.996Z,69.30
2022-08-19T02:39:31.035Z,69.30
2022-08-19T02:40:30.998Z,69.40
2022-08-19T02:41:30.978Z,69.53
2022-08-19T02:42:30.972Z,69.20
2022-08-19T02:43:32.277Z,69.98
2022-08-19T02:44:32.109Z,69.98
2022-08-19T02:45:30.901Z,69.69
2022-08-19T02:46:30.934Z,69.59
2022-08-19T02:47:30.903Z,69.79
2022-08-19T02:48:30.861Z,69.69
2022-08-19T02:49:34.880Z,69.69
2022-08-19T02:50:30.850Z,69.79
2022-08-19T02:51:30.859Z,69.89
2022-08-19T02:52:30.876Z,69.98
2022-08-19T02:53:31.693Z,69.82
2022-08-19T02:54:30.794Z,69.59
2022-08-19T02:55:30.782Z,69.49
2022-08-19T02:56:30.790Z,69.43
2022-08-19T02:57:30.769Z,69.30
2022-08-19T02:58:30.808Z,69.24
2022-08-19T02:59:30.732Z,69.34
2022-08-19T03:00:31.742Z,69.34
2022-08-19T03:01:30.782Z,69.43
2022-08-19T03:02:30.714Z,69.34
2022-08-19T03:03:30.713Z,69.34
2022-08-19T03:04:33.223Z,69.34
2022-08-19T03:05:56.096Z,69.63
2022-08-19T03:06:30.670Z,69.34
2022-08-19T03:07:30.647Z,69.34
2022-08-19T03:08:30.655Z,69.43
2022-08-19T03:09:31.201Z,69.43
2022-08-19T03:10:30.600Z,69.43
2022-08-19T03:11:30.602Z,69.34
2022-08-19T03:12:30.604Z,69.53
2022-08-19T03:13:30.594Z,69.34
2022-08-19T03:14:30.633Z,69.34
2022-08-19T03:15:30.591Z,69.43
2022-08-19T03:16:33.258Z,69.43
2022-08-19T03:17:30.543Z,69.14
2022-08-19T03:18:30.539Z,69.34
2022-08-19T03:19:30.535Z,69.43
2022-08-19T03:20:33.226Z,69.53
2022-08-19T03:21:30.479Z,69.34
2022-08-19T03:22:30.474Z,69.43
2022-08-19T03:23:30.452Z,69.43
2022-08-19T03:24:30.472Z,69.43
2022-08-19T03:25:30.462Z,69.63
2022-08-19T03:26:30.461Z,69.43
2022-08-19T03:27:34.210Z,69.34
2022-08-19T03:28:30.408Z,69.34
2022-08-19T03:29:31.833Z,69.43
2022-08-19T03:30:30.393Z,69.43
2022-08-19T03:31:45.664Z,69.34
2022-08-19T03:32:32.877Z,69.34
2022-08-19T03:33:30.342Z,69.34
2022-08-19T03:34:30.349Z,69.24
2022-08-19T03:35:30.351Z,69.24
2022-08-19T03:36:31.277Z,69.34
2022-08-19T03:37:30.277Z,69.20
2022-08-19T03:38:30.271Z,69.14
2022-08-19T03:39:30.327Z,69.40
2022-08-19T03:40:30.271Z,69.89
2022-08-19T03:41:34.241Z,69.98
2022-08-19T03:42:38.082Z,69.59
2022-08-19T03:43:30.242Z,69.43
2022-08-19T03:44:30.294Z,69.82
2022-08-19T03:45:30.318Z,69.89
2022-08-19T03:46:30.318Z,69.92
2022-08-19T03:47:30.249Z,70.18
2022-08-19T03:48:30.146Z,69.98
2022-08-19T03:49:30.144Z,70.08
2022-08-19T03:50:30.153Z,70.08
2022-08-19T03:51:30.768Z,69.89
2022-08-19T03:52:30.136Z,70.28
2022-08-19T03:53:30.759Z,70.02
2022-08-19T03:54:30.074Z,70.12
2022-08-19T03:55:30.082Z,70.12
2022-08-19T03:56:30.063Z,70.12
2022-08-19T03:57:31.855Z,69.92
2022-08-19T03:58:30.070Z,70.51
2022-08-19T03:59:30.018Z,70.02
2022-08-19T04:00:30.016Z,69.92
2022-08-19T04:01:35.505Z,70.02
2022-08-19T04:02:30.014Z,70.12
2022-08-19T04:03:29.995Z,70.41
2022-08-19T04:04:30.005Z,69.92
2022-08-19T04:05:29.948Z,69.92
2022-08-19T04:06:29.950Z,69.63
2022-08-19T04:07:29.922Z,69.43
2022-08-19T04:08:29.940Z,69.85
2022-08-19T04:09:30.750Z,69.66
2022-08-19T04:10:29.889Z,69.85
2022-08-19T04:11:42.775Z,69.66
2022-08-19T04:12:29.879Z,69.76
2022-08-19T04:13:29.886Z,69.85
2022-08-19T04:14:29.891Z,69.85
2022-08-19T04:15:30.738Z,69.85
2022-08-19T04:16:31.666Z,69.95
2022-08-19T04:17:29.919Z,69.85
2022-08-19T04:18:33.543Z,70.09
2022-08-19T04:19:29.798Z,69.85
2022-08-19T04:20:29.778Z,69.40
2022-08-19T04:21:29.763Z,69.50
2022-08-19T04:22:29.754Z,69.31
2022-08-19T04:23:29.760Z,69.21
2022-08-19T04:24:29.754Z,69.40
2022-08-19T04:25:29.763Z,69.40
2022-08-19T04:26:29.741Z,69.40
2022-08-19T04:27:29.692Z,69.50
2022-08-19T04:28:29.692Z,69.40
2022-08-19T04:29:29.676Z,69.70
2022-08-19T04:30:29.698Z,69.40
2022-08-19T04:31:29.702Z,69.63
2022-08-19T04:32:29.697Z,69.40
2022-08-19T04:33:29.631Z,69.40
2022-08-19T04:34:29.631Z,69.24
2022-08-19T04:35:29.628Z,69.53
2022-08-19T04:36:29.605Z,69.73
2022-08-19T04:37:35.332Z,69.24
2022-08-19T04:38:29.561Z,69.24
2022-08-19T04:39:29.594Z,69.53
2022-08-19T04:40:29.567Z,69.53
2022-08-19T04:41:29.552Z,69.43
2022-08-19T04:42:31.106Z,69.53
2022-08-19T04:43:30.260Z,69.04
2022-08-19T04:44:29.495Z,68.98
2022-08-19T04:45:29.499Z,68.95
2022-08-19T04:46:39.546Z,69.18
2022-08-19T04:47:48.230Z,69.18
2022-08-19T04:48:29.451Z,69.27
2022-08-19T04:49:29.438Z,69.08
2022-08-19T04:50:29.433Z,69.08
2022-08-19T04:51:29.439Z,69.18
2022-08-19T04:52:29.415Z,68.88
2022-08-19T04:53:29.454Z,68.29
2022-08-19T04:54:37.527Z,68.39
2022-08-19T04:55:29.376Z,68.29
2022-08-19T04:56:29.378Z,68.04
2022-08-19T04:57:29.381Z,68.04
2022-08-19T04:58:29.382Z,68.23
2022-08-19T04:59:29.386Z,68.23
2022-08-19T05:00:30.293Z,68.04
2022-08-19T05:01:29.374Z,67.84
2022-08-19T05:02:29.322Z,67.68
2022-08-19T05:03:30.627Z,67.97
2022-08-19T05:04:29.309Z,68.16
2022-08-19T05:05:29.320Z,67.58
2022-08-19T05:06:29.756Z,66.99
2022-08-19T05:07:29.256Z,67.38
2022-08-19T05:08:31.416Z,67.29
2022-08-19T05:09:55.538Z,67.19
2022-08-19T05:10:29.223Z,67.77
2022-08-19T05:11:29.231Z,67.12
2022-08-19T05:12:29.562Z,66.60
2022-08-19T05:13:29.181Z,66.69
2022-08-19T05:14:29.186Z,66.83
2022-08-19T05:15:29.168Z,66.93
2022-08-19T05:16:29.193Z,67.02
2022-08-19T05:17:32.393Z,66.93
2022-08-19T05:18:29.133Z,66.93
2022-08-19T05:19:29.116Z,66.73
2022-08-19T05:20:29.133Z,66.83
2022-08-19T05:21:29.102Z,66.83
2022-08-19T05:22:29.116Z,66.83
2022-08-19T05:23:29.098Z,66.83
2022-08-19T05:24:29.068Z,66.53
2022-08-19T05:25:29.060Z,66.53
2022-08-19T05:26:29.066Z,66.53
2022-08-19T05:27:29.061Z,66.53
2022-08-19T05:28:29.065Z,66.37
2022-08-19T05:29:36.194Z,66.37
2022-08-19T05:30:42.381Z,66.66
2022-08-19T05:31:28.998Z,66.66
2022-08-19T05:32:29.001Z,65.98
2022-08-19T05:33:28.984Z,66.37
2022-08-19T05:34:29.005Z,66.17
2022-08-19T05:35:29.014Z,66.17
2022-08-19T05:36:28.944Z,66.17
2022-08-19T05:37:28.939Z,65.98
2022-08-19T05:38:28.941Z,65.81
2022-08-19T05:39:28.951Z,65.88
2022-08-19T05:40:28.933Z,65.78
2022-08-19T05:41:28.961Z,65.81
2022-08-19T05:42:28.886Z,65.72
2022-08-19T05:43:28.870Z,65.52
2022-08-19T05:44:28.881Z,65.52
2022-08-19T05:45:28.884Z,65.22
2022-08-19T05:46:28.853Z,65.62
2022-08-19T05:47:28.873Z,65.42
2022-08-19T05:48:28.823Z,64.96
2022-08-19T05:49:28.815Z,65.25
2022-08-19T05:50:28.813Z,64.86
2022-08-19T05:51:29.403Z,64.96
2022-08-19T05:52:28.825Z,64.47
2022-08-19T05:53:28.833Z,64.31
2022-08-19T05:54:28.771Z,64.47
2022-08-19T05:55:28.758Z,64.50
2022-08-19T05:56:28.758Z,64.31
2022-08-19T05:57:28.765Z,64.60
2022-08-19T05:58:28.746Z,64.60
2022-08-19T05:59:28.753Z,63.81
2022-08-19T06:00:28.759Z,63.71
2022-08-19T06:01:28.703Z,63.65
2022-08-19T06:02:28.745Z,63.81
2022-08-19T06:03:28.676Z,62.87
2022-08-19T06:04:28.697Z,62.76
2022-08-19T06:05:28.665Z,62.54
2022-08-19T06:06:28.707Z,61.88
2022-08-19T06:07:28.679Z,61.49
2022-08-19T06:08:34.438Z,61.58
2022-08-19T06:09:28.644Z,61.49
2022-08-19T06:10:28.684Z,61.58
2022-08-19T06:11:28.623Z,61.58
2022-08-19T06:12:29.368Z,61.58
2022-08-19T06:13:28.579Z,61.29
2022-08-19T06:14:28.572Z,61.29
2022-08-19T06:15:28.579Z,61.00
2022-08-19T06:16:28.583Z,61.10
2022-08-19T06:17:28.582Z,60.90
2022-08-19T06:18:29.317Z,61.39
2022-08-19T06:19:28.524Z,61.10
2022-08-19T06:20:54.109Z,60.60
2022-08-19T06:21:28.520Z,60.90
2022-08-19T06:22:28.507Z,61.19
2022-08-19T06:23:28.533Z,60.70
2022-08-19T06:24:28.502Z,60.41
2022-08-19T06:25:30.515Z,60.63
2022-08-19T06:26:28.490Z,60.63
2022-08-19T06:27:28.453Z,60.73
2022-08-19T06:28:28.444Z,60.73
2022-08-19T06:29:28.468Z,60.44
2022-08-19T06:30:28.451Z,60.34
2022-08-19T06:31:29.321Z,60.24
2022-08-19T06:32:28.395Z,60.24
2022-08-19T06:33:28.399Z,60.44
2022-08-19T06:34:28.411Z,60.37
2022-08-19T06:35:28.405Z,60.07
2022-08-19T06:36:28.397Z,59.97
2022-08-19T06:37:28.386Z,59.84
2022-08-19T06:38:28.338Z,60.44
2022-08-19T06:39:28.342Z,60.47
2022-08-19T06:40:28.346Z,60.17
2022-08-19T06:41:28.315Z,60.37
2022-08-19T06:42:28.320Z,60.47
2022-08-19T06:43:28.330Z,60.30
2022-08-19T06:44:28.302Z,60.00
2022-08-19T06:45:35.524Z,60.50
2022-08-19T06:46:28.274Z,58.92
2022-08-19T06:47:28.922Z,59.12
2022-08-19T06:48:28.261Z,58.53
2022-08-19T06:49:28.293Z,59.12
2022-08-19T06:50:28.825Z,59.12
2022-08-19T06:51:30.263Z,59.02
2022-08-19T06:52:28.220Z,59.41
2022-08-19T06:53:28.228Z,59.05
2022-08-19T06:54:30.716Z,59.05
2022-08-19T06:55:28.220Z,59.25
2022-08-19T06:56:28.858Z,59.05
2022-08-19T06:57:28.170Z,59.17
2022-08-19T06:58:28.165Z,58.98
2022-08-19T06:59:28.170Z,59.08
2022-08-19T07:00:28.355Z,58.81
2022-08-19T07:01:28.147Z,58.22
2022-08-19T07:02:28.184Z,57.56
2022-08-19T07:03:28.188Z,57.86
2022-08-19T07:04:28.184Z,57.65
2022-08-19T07:05:28.127Z,57.56
2022-08-19T07:06:44.713Z,57.39
2022-08-19T07:07:28.107Z,57.19
2022-08-19T07:08:29.303Z,56.82
2022-08-19T07:09:28.112Z,56.33
2022-08-19T07:10:28.856Z,56.13
2022-08-19T07:11:28.058Z,56.26
2022-08-19T07:12:28.068Z,55.66
2022-08-19T07:13:28.056Z,55.96
2022-08-19T07:14:28.067Z,56.09
2022-08-19T07:15:28.052Z,56.19
2022-08-19T07:16:29.473Z,55.79
2022-08-19T07:17:28.868Z,56.09
2022-08-19T07:18:27.998Z,55.92
2022-08-19T07:19:27.996Z,55.52
2022-08-19T07:20:28.781Z,55.33
2022-08-19T07:21:29.637Z,55.72
2022-08-19T07:22:27.999Z,55.33
2022-08-19T07:23:28.003Z,55.33
2022-08-19T07:24:27.977Z,54.86
2022-08-19T07:25:32.174Z,54.56
2022-08-19T07:26:28.282Z,54.17
2022-08-19T07:27:27.942Z,54.06
2022-08-19T07:28:27.962Z,54.06
2022-08-19T07:29:28.663Z,53.89
2022-08-19T07:30:27.957Z,53.70
2022-08-19T07:31:27.913Z,53.40
2022-08-19T07:32:28.094Z,53.70
2022-08-19T07:33:28.051Z,53.30
2022-08-19T07:34:27.894Z,52.91
2022-08-19T07:35:27.902Z,53.11
2022-08-19T07:36:27.892Z,52.91
2022-08-19T07:37:32.462Z,53.30
2022-08-19T07:38:35.111Z,53.89
2022-08-19T07:40:20.831Z,53.38
2022-08-19T07:41:20.755Z,53.57
2022-08-19T07:42:21.305Z,53.47
2022-08-19T07:43:20.778Z,53.87
2022-08-19T07:44:20.694Z,53.57
2022-08-19T07:45:20.770Z,53.45
2022-08-19T07:46:20.695Z,53.85
2022-08-19T07:47:47.816Z,54.04
2022-08-19T07:48:20.717Z,53.75
2022-08-19T07:49:20.719Z,54.14
2022-08-19T07:50:20.793Z,53.85
2022-08-19T07:51:36.141Z,54.04
2022-08-19T07:52:20.659Z,54.04
2022-08-19T07:53:20.653Z,53.94
2022-08-19T07:54:20.646Z,54.02
2022-08-19T07:55:40.610Z,53.94
2022-08-19T07:56:21.296Z,53.72
2022-08-19T07:57:20.689Z,53.81
2022-08-19T07:58:20.584Z,54.02
2022-08-19T07:59:20.598Z,53.81
2022-08-19T08:00:23.238Z,54.02
2022-08-19T08:01:20.631Z,54.11
2022-08-19T08:02:20.559Z,53.72
2022-08-19T08:03:20.568Z,53.81
2022-08-19T08:04:28.213Z,53.81
2022-08-19T08:06:13.577Z,54.11
2022-08-19T08:07:13.445Z,53.52
2022-08-19T08:09:06.310Z,53.92
2022-08-19T08:10:07.220Z,54.14
2022-08-19T08:12:02.085Z,54.04
2022-08-19T08:13:09.845Z,54.14
2022-08-19T08:14:52.119Z,53.85
2022-08-19T08:15:52.227Z,54.14
2022-08-19T08:16:52.691Z,53.85
2022-08-19T08:17:52.138Z,54.04
2022-08-19T08:18:53.208Z,53.94
2022-08-19T08:19:52.075Z,53.97
2022-08-19T08:20:52.071Z,54.06
2022-08-19T08:21:52.115Z,53.47
2022-08-19T08:22:52.207Z,53.77
2022-08-19T08:23:54.431Z,53.77
2022-08-19T08:24:52.033Z,53.28
2022-08-19T08:25:52.013Z,53.18
2022-08-19T08:26:52.292Z,53.00
2022-08-19T08:27:53.730Z,52.91
2022-08-19T08:28:52.033Z,52.91
2022-08-19T08:29:51.996Z,52.81
2022-08-19T08:30:51.973Z,52.91
2022-08-19T08:31:59.852Z,52.61
2022-08-19T08:32:51.962Z,53.00
2022-08-19T08:33:51.966Z,52.24
2022-08-19T08:34:52.526Z,51.84
2022-08-19T08:35:51.965Z,51.62
2022-08-19T08:36:51.950Z,52.31
2022-08-19T08:37:52.135Z,52.01
2022-08-19T08:39:51.945Z,52.44
2022-08-19T08:40:51.907Z,52.54
2022-08-19T08:41:51.956Z,52.24
2022-08-19T08:42:52.047Z,52.44
2022-08-19T08:43:51.937Z,52.44
2022-08-19T08:45:53.580Z,52.14
2022-08-19T08:46:52.712Z,52.54
2022-08-19T08:47:51.869Z,52.34
2022-08-19T08:48:52.631Z,52.34
2022-08-19T08:49:51.894Z,52.64
2022-08-19T08:50:51.845Z,52.56
2022-08-19T08:51:59.729Z,52.76
2022-08-19T08:52:52.818Z,52.46
2022-08-19T08:53:51.862Z,52.26
2022-08-19T08:54:54.962Z,52.56
2022-08-19T08:55:51.844Z,51.67
2022-08-19T08:56:51.900Z,51.79
2022-08-19T08:57:51.915Z,52.39
2022-08-19T08:58:54.631Z,52.39
2022-08-19T08:59:51.769Z,51.79
2022-08-19T09:00:52.651Z,51.79
2022-08-19T09:01:51.894Z,51.92
2022-08-19T09:02:51.812Z,51.52
2022-08-19T09:03:51.749Z,51.42
2022-08-19T09:04:51.760Z,51.82
2022-08-19T09:05:51.883Z,51.54
2022-08-19T09:06:51.743Z,52.04
2022-08-19T09:07:51.777Z,51.54
2022-08-19T09:08:51.762Z,50.65
2022-08-19T09:09:51.702Z,50.85
2022-08-19T09:10:55.208Z,51.05
2022-08-19T09:11:51.702Z,50.95
2022-08-19T09:12:51.693Z,50.76
2022-08-19T09:13:51.717Z,51.05
2022-08-19T09:14:52.358Z,50.95
2022-08-19T09:15:51.668Z,51.05
2022-08-19T09:16:51.719Z,51.05
2022-08-19T09:17:51.650Z,51.05
2022-08-19T09:18:51.656Z,51.05
2022-08-19T09:19:51.661Z,51.42
2022-08-19T09:20:51.639Z,51.45
2022-08-19T09:21:51.666Z,51.23
2022-08-19T09:22:51.627Z,51.35
2022-08-19T09:23:52.188Z,51.65
2022-08-19T09:24:51.630Z,51.35
2022-08-19T09:25:51.601Z,51.12
2022-08-19T09:26:52.771Z,51.23
2022-08-19T09:27:51.612Z,51.32
2022-08-19T09:28:51.600Z,51.82
2022-08-19T09:29:51.617Z,51.42
2022-08-19T09:30:53.026Z,51.72
2022-08-19T09:31:52.159Z,51.72
2022-08-19T09:32:52.954Z,51.92
2022-08-19T09:33:52.375Z,51.82
2022-08-19T09:34:51.580Z,51.82
2022-08-19T09:35:53.593Z,51.92
2022-08-19T09:36:51.561Z,51.82
2022-08-19T09:37:54.842Z,51.92
2022-08-19T09:38:51.525Z,52.41
2022-08-19T09:39:51.547Z,52.31
2022-08-19T09:40:51.499Z,52.29
2022-08-19T09:41:51.502Z,52.31
2022-08-19T09:42:52.733Z,52.31
2022-08-19T09:43:51.510Z,52.41
2022-08-19T09:44:51.507Z,51.23
2022-08-19T09:45:51.472Z,51.23
2022-08-19T09:46:52.195Z,50.93
2022-08-19T09:47:51.458Z,51.03
2022-08-19T09:48:51.449Z,51.23
2022-08-19T09:49:51.448Z,51.23
2022-08-19T09:50:52.314Z,51.42
2022-08-19T09:51:52.180Z,51.25
2022-08-19T09:52:55.578Z,51.12
2022-08-19T09:53:52.853Z,51.45
2022-08-19T09:54:51.926Z,51.54
2022-08-19T09:55:51.401Z,51.05
2022-08-19T09:56:51.406Z,51.25
2022-08-19T09:57:51.399Z,51.15
2022-08-19T09:58:51.411Z,51.45
2022-08-19T09:59:51.391Z,51.05
2022-08-19T10:00:51.663Z,51.45
2022-08-19T10:01:52.190Z,52.04
2022-08-19T10:02:51.358Z,51.75
2022-08-19T10:03:51.350Z,51.45
2022-08-19T10:04:52.212Z,51.65
2022-08-19T10:05:55.246Z,51.84
2022-08-19T10:06:53.596Z,51.45
2022-08-19T10:07:51.349Z,50.56
2022-08-19T10:08:51.319Z,50.36
2022-08-19T10:09:51.328Z,50.95
2022-08-19T10:10:51.328Z,50.46
2022-08-19T10:11:54.726Z,50.16
2022-08-19T10:12:51.299Z,50.16
2022-08-19T10:13:51.306Z,50.36
2022-08-19T10:14:51.302Z,50.46
2022-08-19T10:15:51.290Z,50.36
2022-08-19T10:16:52.194Z,50.36
2022-08-19T10:17:54.996Z,50.76
2022-08-19T10:18:51.250Z,50.95
2022-08-19T10:19:55.743Z,50.65
2022-08-19T10:20:51.936Z,51.35
2022-08-19T10:21:51.256Z,51.35
2022-08-19T10:22:51.838Z,51.35
2022-08-19T10:23:51.217Z,51.15
2022-08-19T10:24:52.200Z,51.45
2022-08-19T10:25:51.235Z,51.37
2022-08-19T10:26:55.855Z,51.47
2022-08-19T10:27:51.630Z,51.28
2022-08-19T10:28:51.285Z,51.07
2022-08-19T10:29:51.193Z,51.28
2022-08-19T10:30:51.197Z,51.07
2022-08-19T10:31:59.824Z,51.07
2022-08-19T10:32:51.723Z,51.60
2022-08-19T10:33:53.358Z,51.10
2022-08-19T10:34:51.150Z,51.00
2022-08-19T10:35:56.851Z,50.90
2022-08-19T10:36:55.871Z,50.70
2022-08-19T10:37:57.434Z,50.21
2022-08-19T10:38:56.094Z,50.81
2022-08-19T10:39:51.207Z,50.60
2022-08-19T10:40:51.132Z,50.60
2022-08-19T10:41:51.135Z,50.70
2022-08-19T10:42:51.708Z,50.81
2022-08-19T10:43:51.100Z,51.00
2022-08-19T10:44:51.842Z,51.20
2022-08-19T10:45:52.389Z,51.30
2022-08-19T10:46:51.113Z,51.10
2022-08-19T10:47:51.735Z,50.60
2022-08-19T10:48:51.081Z,50.48
2022-08-19T10:49:51.056Z,50.68
2022-08-19T10:50:51.072Z,50.78
2022-08-19T10:51:51.070Z,50.38
2022-08-19T10:52:51.053Z,50.68
2022-08-19T10:53:51.051Z,50.68
2022-08-19T10:54:51.022Z,51.47
2022-08-19T10:55:51.740Z,51.07
2022-08-19T10:56:51.034Z,51.07
2022-08-19T10:58:02.240Z,50.88
2022-08-19T10:58:51.000Z,51.07
2022-08-19T10:59:51.011Z,51.37
2022-08-19T11:00:51.068Z,51.37
2022-08-19T11:01:51.011Z,51.07
2022-08-19T11:02:50.972Z,51.07
2022-08-19T11:03:51.750Z,50.88
2022-08-19T11:04:50.981Z,50.88
2022-08-19T11:05:50.957Z,51.00
2022-08-19T11:06:51.718Z,50.88
2022-08-19T11:07:50.946Z,50.90
2022-08-19T11:08:50.959Z,51.00
2022-08-19T11:09:50.927Z,51.30
2022-08-19T11:10:51.740Z,51.30
2022-08-19T11:11:50.961Z,51.00
2022-08-19T11:12:50.903Z,50.93
2022-08-19T11:13:50.911Z,50.93
2022-08-19T11:14:50.911Z,50.43
2022-08-19T11:15:50.912Z,50.26
2022-08-19T11:16:50.905Z,50.56
2022-08-19T11:17:50.901Z,50.95
2022-08-19T11:18:51.752Z,50.45
2022-08-19T11:19:50.883Z,50.35
2022-08-19T11:20:50.865Z,50.28
2022-08-19T11:21:50.852Z,50.28
2022-08-19T11:22:50.856Z,50.18
2022-08-19T11:23:50.865Z,49.88
2022-08-19T11:24:50.865Z,50.20
2022-08-19T11:25:50.848Z,49.80
2022-08-19T11:26:51.754Z,49.71
2022-08-19T11:27:50.882Z,50.40
2022-08-19T11:28:50.808Z,50.40
2022-08-19T11:29:50.807Z,49.31
2022-08-19T11:30:50.811Z,49.31
2022-08-19T11:31:50.820Z,48.61
2022-08-19T11:32:50.813Z,48.91
2022-08-19T11:33:50.822Z,48.61
2022-08-19T11:34:51.762Z,48.94
2022-08-19T11:35:50.783Z,48.32
2022-08-19T11:36:50.784Z,48.41
2022-08-19T11:37:50.828Z,48.22
2022-08-19T11:38:50.764Z,48.11
2022-08-19T11:39:51.847Z,47.32
2022-08-19T11:40:50.771Z,48.02
2022-08-19T11:41:50.733Z,47.72
2022-08-19T11:42:51.250Z,48.22
2022-08-19T11:43:50.785Z,48.49
2022-08-19T11:44:50.716Z,48.39
2022-08-19T11:45:50.715Z,47.99
2022-08-19T11:46:50.720Z,48.29
2022-08-19T11:47:50.729Z,47.99
2022-08-19T11:48:50.720Z,48.59
2022-08-19T11:49:50.690Z,48.47
2022-08-19T11:50:50.686Z,48.47
2022-08-19T11:51:50.695Z,47.97
2022-08-19T11:52:50.670Z,48.47
2022-08-19T11:53:50.668Z,48.77
2022-08-19T11:54:50.670Z,48.37
2022-08-19T11:55:50.673Z,48.77
2022-08-19T11:56:50.666Z,48.37
2022-08-19T11:57:50.744Z,48.17
2022-08-19T11:58:50.649Z,48.47
2022-08-19T11:59:50.624Z,48.66
2022-08-19T12:00:50.632Z,48.37
2022-08-19T12:01:50.630Z,48.47
2022-08-19T12:02:50.623Z,48.57
2022-08-19T12:03:50.708Z,48.27
2022-08-19T12:04:50.619Z,48.07
2022-08-19T12:05:50.664Z,48.07
2022-08-19T12:06:50.634Z,48.17
2022-08-19T12:07:50.612Z,48.44
2022-08-19T12:08:50.648Z,48.27
2022-08-19T12:09:50.592Z,48.14
2022-08-19T12:10:50.573Z,48.54
2022-08-19T12:11:50.568Z,48.54
2022-08-19T12:12:58.630Z,48.84
2022-08-19T12:13:50.547Z,49.04
2022-08-19T12:14:50.559Z,48.74
2022-08-19T12:15:50.526Z,48.65
2022-08-19T12:16:52.198Z,48.84
2022-08-19T12:17:50.567Z,48.66
2022-08-19T12:18:50.528Z,49.07
2022-08-19T12:19:50.519Z,48.96
2022-08-19T12:20:50.523Z,48.37
2022-08-19T12:21:50.495Z,48.17
2022-08-19T12:22:50.504Z,48.37
2022-08-19T12:23:55.106Z,48.47
2022-08-19T12:24:50.494Z,48.17
2022-08-19T12:25:50.479Z,48.07
2022-08-19T12:26:53.128Z,48.17
2022-08-19T12:27:57.292Z,48.27
2022-08-19T12:28:50.496Z,48.19
2022-08-19T12:29:50.476Z,48.49
2022-08-19T12:30:51.312Z,48.49
2022-08-19T12:31:50.459Z,48.29
2022-08-19T12:32:50.447Z,48.19
2022-08-19T12:33:50.426Z,48.69
2022-08-19T12:34:50.424Z,48.19
2022-08-19T12:35:50.435Z,48.52
2022-08-19T12:36:50.695Z,48.22
2022-08-19T12:37:57.055Z,47.92
2022-08-19T12:38:50.408Z,47.82
2022-08-19T12:39:50.449Z,47.72
2022-08-19T12:40:50.385Z,47.32
2022-08-19T12:41:51.635Z,47.13
2022-08-19T12:42:50.382Z,47.62
2022-08-19T12:43:50.398Z,46.62
2022-08-19T12:44:50.380Z,46.60
2022-08-19T12:45:50.356Z,46.41
2022-08-19T12:46:53.794Z,46.80
2022-08-19T12:47:50.434Z,46.70
2022-08-19T12:48:54.091Z,46.60
2022-08-19T12:49:54.325Z,46.31
2022-08-19T12:50:51.314Z,46.41
2022-08-19T12:51:50.342Z,46.70
2022-08-19T12:52:50.327Z,46.50
2022-08-19T12:53:50.306Z,46.50
2022-08-19T12:54:50.306Z,46.41
2022-08-19T12:55:50.291Z,45.90
2022-08-19T12:56:50.302Z,46.41
2022-08-19T12:57:50.402Z,46.80
2022-08-19T12:58:50.512Z,46.50